sensor_id;sensor_type;location;lat;lon;timestamp;P1;P2;P0
74638;PMS5003;63146;-33.830;18.668;2022-09-09T00:01:04;11;10;
74638;PMS5003;63146;-33.830;18.668;2022-09-09T00:03:31;10;7;
74638;PMS5003;63146;-33.830;18.668;2022-09-09T00:05:58;9;8;
74638;PMS5003;63146;-33.830;18.668;2022-09-09T00:08:20;9;7;
74638;PMS5003;63146;-33.830;18.668;2022-09-09T00:10:45;10;7;
74638;PMS5003;63146;-33.830;18.668;2022-09-09T00:13:13;13;13;
74638;PMS5003;63146;-33.830;18.668;2022-09-09T00:15:37;10;8;
74638;PMS5003;63146;-33.830;18.668;2022-09-09T00:18:02;8;7;
74638;PMS5003;63146;-33.830;18.668;2022-09-09T00:20:28;8;8;
74638;PMS5003;63146;-33.830;18.668;2022-09-09T00:22:53;6;6;
74638;PMS5003;63146;-33.830;18.668;2022-09-09T00:25:19;9;8;
74638;PMS5003;63146;-33.830;18.668;2022-09-09T00:27:44;8;7;
74638;PMS5003;63146;-33.830;18.668;2022-09-09T00:30:14;7;6;
74638;PMS5003;63146;-33.830;18.668;2022-09-09T00:32:34;10;9;
74638;PMS5003;63146;-33.830;18.668;2022-09-09T00:35:01;10;8;
74638;PMS5003;63146;-33.830;18.668;2022-09-09T00:37:25;12;7;
74638;PMS5003;63146;-33.830;18.668;2022-09-09T00:39:50;11;9;
74638;PMS5003;63146;-33.830;18.668;2022-09-09T00:42:16;9;8;
74638;PMS5003;63146;-33.830;18.668;2022-09-09T00:44:46;7;6;
74638;PMS5003;63146;-33.830;18.668;2022-09-09T00:47:11;10;7;
74638;PMS5003;63146;-33.830;18.668;2022-09-09T00:49:35;13;9;
74638;PMS5003;63146;-33.830;18.668;2022-09-09T00:52:01;12;9;
74638;PMS5003;63146;-33.830;18.668;2022-09-09T00:54:27;8;8;
74638;PMS5003;63146;-33.830;18.668;2022-09-09T00:56:51;12;11;
74638;PMS5003;63146;-33.830;18.668;2022-09-09T00:59:16;9;7;
74638;PMS5003;63146;-33.830;18.668;2022-09-09T01:01:38;10;8;
74638;PMS5003;63146;-33.830;18.668;2022-09-09T01:04:04;10;8;
74638;PMS5003;63146;-33.830;18.668;2022-09-09T01:06:30;7;7;
74638;PMS5003;63146;-33.830;18.668;2022-09-09T01:09:00;6;5;
74638;PMS5003;63146;-33.830;18.668;2022-09-09T01:11:21;11;8;
74638;PMS5003;63146;-33.830;18.668;2022-09-09T01:13:46;11;9;
74638;PMS5003;63146;-33.830;18.668;2022-09-09T01:16:12;10;9;
74638;PMS5003;63146;-33.830;18.668;2022-09-09T01:18:39;8;8;
74638;PMS5003;63146;-33.830;18.668;2022-09-09T01:21:04;12;8;
74638;PMS5003;63146;-33.830;18.668;2022-09-09T01:28:21;9;8;
74638;PMS5003;63146;-33.830;18.668;2022-09-09T01:30:45;13;11;
74638;PMS5003;63146;-33.830;18.668;2022-09-09T01:33:11;14;10;
74638;PMS5003;63146;-33.830;18.668;2022-09-09T01:35:39;13;10;
74638;PMS5003;63146;-33.830;18.668;2022-09-09T01:38:02;15;11;
74638;PMS5003;63146;-33.830;18.668;2022-09-09T01:40:27;14;11;
74638;PMS5003;63146;-33.830;18.668;2022-09-09T01:42:52;15;13;
74638;PMS5003;63146;-33.830;18.668;2022-09-09T01:45:18;16;14;
74638;PMS5003;63146;-33.830;18.668;2022-09-09T01:47:44;20;19;
74638;PMS5003;63146;-33.830;18.668;2022-09-09T01:50:10;16;13;
74638;PMS5003;63146;-33.830;18.668;2022-09-09T01:52:34;17;16;
74638;PMS5003;63146;-33.830;18.668;2022-09-09T01:55:00;20;20;
74638;PMS5003;63146;-33.830;18.668;2022-09-09T01:57:26;21;20;
74638;PMS5003;63146;-33.830;18.668;2022-09-09T01:59:55;29;26;
74638;PMS5003;63146;-33.830;18.668;2022-09-09T02:02:17;21;20;
74638;PMS5003;63146;-33.830;18.668;2022-09-09T02:04:43;29;27;
74638;PMS5003;63146;-33.830;18.668;2022-09-09T02:07:10;30;25;
74638;PMS5003;63146;-33.830;18.668;2022-09-09T02:09:32;24;22;
74638;PMS5003;63146;-33.830;18.668;2022-09-09T02:12:00;24;22;
74638;PMS5003;63146;-33.830;18.668;2022-09-09T02:14:24;33;28;
74638;PMS5003;63146;-33.830;18.668;2022-09-09T02:16:50;30;29;
74638;PMS5003;63146;-33.830;18.668;2022-09-09T02:19:15;25;23;
74638;PMS5003;63146;-33.830;18.668;2022-09-09T02:21:39;31;30;
74638;PMS5003;63146;-33.830;18.668;2022-09-09T02:24:05;35;31;
74638;PMS5003;63146;-33.830;18.668;2022-09-09T02:26:31;33;31;
74638;PMS5003;63146;-33.830;18.668;2022-09-09T02:28:57;25;22;
74638;PMS5003;63146;-33.830;18.668;2022-09-09T02:31:22;21;18;
74638;PMS5003;63146;-33.830;18.668;2022-09-09T02:33:47;20;19;
74638;PMS5003;63146;-33.830;18.668;2022-09-09T02:36:12;19;19;
74638;PMS5003;63146;-33.830;18.668;2022-09-09T02:38:40;22;19;
74638;PMS5003;63146;-33.830;18.668;2022-09-09T02:41:03;23;19;
74638;PMS5003;63146;-33.830;18.668;2022-09-09T02:43:31;29;24;
74638;PMS5003;63146;-33.830;18.668;2022-09-09T02:45:56;22;21;
74638;PMS5003;63146;-33.830;18.668;2022-09-09T02:48:21;23;19;
74638;PMS5003;63146;-33.830;18.668;2022-09-09T02:50:48;22;21;
74638;PMS5003;63146;-33.830;18.668;2022-09-09T02:53:12;21;19;
74638;PMS5003;63146;-33.830;18.668;2022-09-09T02:55:39;18;17;
74638;PMS5003;63146;-33.830;18.668;2022-09-09T02:58:02;25;22;
74638;PMS5003;63146;-33.830;18.668;2022-09-09T03:00:27;20;17;
74638;PMS5003;63146;-33.830;18.668;2022-09-09T03:02:53;21;18;
74638;PMS5003;63146;-33.830;18.668;2022-09-09T03:05:18;16;16;
74638;PMS5003;63146;-33.830;18.668;2022-09-09T03:07:43;19;19;
74638;PMS5003;63146;-33.830;18.668;2022-09-09T03:10:09;18;17;
74638;PMS5003;63146;-33.830;18.668;2022-09-09T03:12:34;19;18;
74638;PMS5003;63146;-33.830;18.668;2022-09-09T03:15:00;18;16;
74638;PMS5003;63146;-33.830;18.668;2022-09-09T03:17:26;18;15;
74638;PMS5003;63146;-33.830;18.668;2022-09-09T03:19:52;20;18;
74638;PMS5003;63146;-33.830;18.668;2022-09-09T03:22:17;15;14;
74638;PMS5003;63146;-33.830;18.668;2022-09-09T03:24:42;15;13;
74638;PMS5003;63146;-33.830;18.668;2022-09-09T03:27:07;21;19;
74638;PMS5003;63146;-33.830;18.668;2022-09-09T03:29:33;21;19;
74638;PMS5003;63146;-33.830;18.668;2022-09-09T03:31:58;30;27;
74638;PMS5003;63146;-33.830;18.668;2022-09-09T03:34:23;28;26;
74638;PMS5003;63146;-33.830;18.668;2022-09-09T03:36:49;24;24;
74638;PMS5003;63146;-33.830;18.668;2022-09-09T03:39:14;30;28;
74638;PMS5003;63146;-33.830;18.668;2022-09-09T03:41:40;29;23;
74638;PMS5003;63146;-33.830;18.668;2022-09-09T03:44:05;26;26;
74638;PMS5003;63146;-33.830;18.668;2022-09-09T03:46:30;34;28;
74638;PMS5003;63146;-33.830;18.668;2022-09-09T03:48:56;28;27;
74638;PMS5003;63146;-33.830;18.668;2022-09-09T03:51:21;29;28;
74638;PMS5003;63146;-33.830;18.668;2022-09-09T03:53:46;26;24;
74638;PMS5003;63146;-33.830;18.668;2022-09-09T03:56:11;31;31;
74638;PMS5003;63146;-33.830;18.668;2022-09-09T03:58:37;29;27;
74638;PMS5003;63146;-33.830;18.668;2022-09-09T04:01:04;33;31;
74638;PMS5003;63146;-33.830;18.668;2022-09-09T04:03:28;28;25;
74638;PMS5003;63146;-33.830;18.668;2022-09-09T04:05:54;28;26;
74638;PMS5003;63146;-33.830;18.668;2022-09-09T04:08:19;29;27;
74638;PMS5003;63146;-33.830;18.668;2022-09-09T04:10:45;29;28;
74638;PMS5003;63146;-33.830;18.668;2022-09-09T04:13:10;29;26;
74638;PMS5003;63146;-33.830;18.668;2022-09-09T04:15:35;27;25;
74638;PMS5003;63146;-33.830;18.668;2022-09-09T04:18:01;27;24;
74638;PMS5003;63146;-33.830;18.668;2022-09-09T04:20:26;27;26;
74638;PMS5003;63146;-33.830;18.668;2022-09-09T04:22:51;28;28;
74638;PMS5003;63146;-33.830;18.668;2022-09-09T04:25:16;26;25;
74638;PMS5003;63146;-33.830;18.668;2022-09-09T04:27:41;30;29;
74638;PMS5003;63146;-33.830;18.668;2022-09-09T04:30:07;32;31;
74638;PMS5003;63146;-33.830;18.668;2022-09-09T04:32:32;35;33;
74638;PMS5003;63146;-33.830;18.668;2022-09-09T04:34:58;30;30;
74638;PMS5003;63146;-33.830;18.668;2022-09-09T04:37:23;37;33;
74638;PMS5003;63146;-33.830;18.668;2022-09-09T04:39:49;33;33;
74638;PMS5003;63146;-33.830;18.668;2022-09-09T04:42:14;31;31;
74638;PMS5003;63146;-33.830;18.668;2022-09-09T04:44:40;36;35;
74638;PMS5003;63146;-33.830;18.668;2022-09-09T04:47:05;37;33;
74638;PMS5003;63146;-33.830;18.668;2022-09-09T04:49:31;37;35;
74638;PMS5003;63146;-33.830;18.668;2022-09-09T04:51:56;64;61;
74638;PMS5003;63146;-33.830;18.668;2022-09-09T04:54:22;153;139;
74638;PMS5003;63146;-33.830;18.668;2022-09-09T04:56:48;194;172;
74638;PMS5003;63146;-33.830;18.668;2022-09-09T04:59:13;207;191;
74638;PMS5003;63146;-33.830;18.668;2022-09-09T05:01:38;178;160;
74638;PMS5003;63146;-33.830;18.668;2022-09-09T05:04:04;156;140;
74638;PMS5003;63146;-33.830;18.668;2022-09-09T05:06:29;161;144;
74638;PMS5003;63146;-33.830;18.668;2022-09-09T05:08:54;115;107;
74638;PMS5003;63146;-33.830;18.668;2022-09-09T05:11:21;123;116;
74638;PMS5003;63146;-33.830;18.668;2022-09-09T05:13:46;77;71;
74638;PMS5003;63146;-33.830;18.668;2022-09-09T05:16:11;71;65;
74638;PMS5003;63146;-33.830;18.668;2022-09-09T05:18:37;66;59;
74638;PMS5003;63146;-33.830;18.668;2022-09-09T05:21:02;55;52;
74638;PMS5003;63146;-33.830;18.668;2022-09-09T05:23:28;61;55;
74638;PMS5003;63146;-33.830;18.668;2022-09-09T05:25:55;58;55;
74638;PMS5003;63146;-33.830;18.668;2022-09-09T05:28:19;52;48;
74638;PMS5003;63146;-33.830;18.668;2022-09-09T05:30:44;50;45;
74638;PMS5003;63146;-33.830;18.668;2022-09-09T05:33:09;35;34;
74638;PMS5003;63146;-33.830;18.668;2022-09-09T05:35:35;40;38;
74638;PMS5003;63146;-33.830;18.668;2022-09-09T05:38:01;39;38;
74638;PMS5003;63146;-33.830;18.668;2022-09-09T05:40:26;38;37;
74638;PMS5003;63146;-33.830;18.668;2022-09-09T05:42:51;36;35;
74638;PMS5003;63146;-33.830;18.668;2022-09-09T05:45:16;44;41;
74638;PMS5003;63146;-33.830;18.668;2022-09-09T05:47:42;42;38;
74638;PMS5003;63146;-33.830;18.668;2022-09-09T05:50:08;40;38;
74638;PMS5003;63146;-33.830;18.668;2022-09-09T05:52:33;36;33;
74638;PMS5003;63146;-33.830;18.668;2022-09-09T05:54:58;44;42;
74638;PMS5003;63146;-33.830;18.668;2022-09-09T05:57:24;42;40;
74638;PMS5003;63146;-33.830;18.668;2022-09-09T05:59:50;39;38;
74638;PMS5003;63146;-33.830;18.668;2022-09-09T06:02:16;47;45;
74638;PMS5003;63146;-33.830;18.668;2022-09-09T06:04:41;49;48;
74638;PMS5003;63146;-33.830;18.668;2022-09-09T06:07:06;45;41;
74638;PMS5003;63146;-33.830;18.668;2022-09-09T06:09:32;47;45;
74638;PMS5003;63146;-33.830;18.668;2022-09-09T06:11:58;48;44;
74638;PMS5003;63146;-33.830;18.668;2022-09-09T06:14:23;54;51;
74638;PMS5003;63146;-33.830;18.668;2022-09-09T06:16:49;42;41;
74638;PMS5003;63146;-33.830;18.668;2022-09-09T06:19:14;44;43;
74638;PMS5003;63146;-33.830;18.668;2022-09-09T06:21:39;42;40;
74638;PMS5003;63146;-33.830;18.668;2022-09-09T06:24:05;43;41;
74638;PMS5003;63146;-33.830;18.668;2022-09-09T06:26:31;39;38;
74638;PMS5003;63146;-33.830;18.668;2022-09-09T06:28:56;41;40;
74638;PMS5003;63146;-33.830;18.668;2022-09-09T06:31:22;45;43;
74638;PMS5003;63146;-33.830;18.668;2022-09-09T06:33:47;43;41;
74638;PMS5003;63146;-33.830;18.668;2022-09-09T06:36:13;41;39;
74638;PMS5003;63146;-33.830;18.668;2022-09-09T06:38:37;46;44;
74638;PMS5003;63146;-33.830;18.668;2022-09-09T06:41:03;42;40;
74638;PMS5003;63146;-33.830;18.668;2022-09-09T06:43:28;44;40;
74638;PMS5003;63146;-33.830;18.668;2022-09-09T06:45:54;44;43;
74638;PMS5003;63146;-33.830;18.668;2022-09-09T06:48:19;38;36;
74638;PMS5003;63146;-33.830;18.668;2022-09-09T06:50:44;35;33;
74638;PMS5003;63146;-33.830;18.668;2022-09-09T06:53:09;33;31;
74638;PMS5003;63146;-33.830;18.668;2022-09-09T06:55:35;32;30;
74638;PMS5003;63146;-33.830;18.668;2022-09-09T06:58:00;27;24;
74638;PMS5003;63146;-33.830;18.668;2022-09-09T07:00:26;21;20;
74638;PMS5003;63146;-33.830;18.668;2022-09-09T07:02:51;15;14;
74638;PMS5003;63146;-33.830;18.668;2022-09-09T07:05:16;19;17;
74638;PMS5003;63146;-33.830;18.668;2022-09-09T07:07:42;16;15;
74638;PMS5003;63146;-33.830;18.668;2022-09-09T07:10:07;18;17;
74638;PMS5003;63146;-33.830;18.668;2022-09-09T07:12:32;15;15;
74638;PMS5003;63146;-33.830;18.668;2022-09-09T07:14:57;17;14;
74638;PMS5003;63146;-33.830;18.668;2022-09-09T07:17:22;16;15;
74638;PMS5003;63146;-33.830;18.668;2022-09-09T07:19:47;14;13;
74638;PMS5003;63146;-33.830;18.668;2022-09-09T07:22:13;18;15;
74638;PMS5003;63146;-33.830;18.668;2022-09-09T07:24:38;15;13;
74638;PMS5003;63146;-33.830;18.668;2022-09-09T07:27:03;15;13;
74638;PMS5003;63146;-33.830;18.668;2022-09-09T07:29:29;12;11;
74638;PMS5003;63146;-33.830;18.668;2022-09-09T07:31:54;19;16;
74638;PMS5003;63146;-33.830;18.668;2022-09-09T07:34:19;15;15;
74638;PMS5003;63146;-33.830;18.668;2022-09-09T07:36:45;15;15;
74638;PMS5003;63146;-33.830;18.668;2022-09-09T07:39:11;15;12;
74638;PMS5003;63146;-33.830;18.668;2022-09-09T07:41:36;14;13;
74638;PMS5003;63146;-33.830;18.668;2022-09-09T07:44:04;17;14;
74638;PMS5003;63146;-33.830;18.668;2022-09-09T07:46:26;18;17;
74638;PMS5003;63146;-33.830;18.668;2022-09-09T07:48:52;17;17;
74638;PMS5003;63146;-33.830;18.668;2022-09-09T07:51:17;19;15;
74638;PMS5003;63146;-33.830;18.668;2022-09-09T07:53:42;15;14;
74638;PMS5003;63146;-33.830;18.668;2022-09-09T07:56:08;15;15;
74638;PMS5003;63146;-33.830;18.668;2022-09-09T07:58:32;15;14;
74638;PMS5003;63146;-33.830;18.668;2022-09-09T08:00:58;11;9;
74638;PMS5003;63146;-33.830;18.668;2022-09-09T08:03:23;11;10;
74638;PMS5003;63146;-33.830;18.668;2022-09-09T08:05:48;13;10;
74638;PMS5003;63146;-33.830;18.668;2022-09-09T08:08:14;9;9;
74638;PMS5003;63146;-33.830;18.668;2022-09-09T08:10:39;13;11;
74638;PMS5003;63146;-33.830;18.668;2022-09-09T08:13:04;10;9;
74638;PMS5003;63146;-33.830;18.668;2022-09-09T08:15:30;14;11;
74638;PMS5003;63146;-33.830;18.668;2022-09-09T08:17:56;10;8;
74638;PMS5003;63146;-33.830;18.668;2022-09-09T08:20:21;11;10;
74638;PMS5003;63146;-33.830;18.668;2022-09-09T08:22:46;9;9;
74638;PMS5003;63146;-33.830;18.668;2022-09-09T08:25:12;10;8;
74638;PMS5003;63146;-33.830;18.668;2022-09-09T08:27:37;9;7;
74638;PMS5003;63146;-33.830;18.668;2022-09-09T08:30:03;9;9;
74638;PMS5003;63146;-33.830;18.668;2022-09-09T08:32:28;9;9;
74638;PMS5003;63146;-33.830;18.668;2022-09-09T08:34:53;11;10;
74638;PMS5003;63146;-33.830;18.668;2022-09-09T08:37:19;11;8;
74638;PMS5003;63146;-33.830;18.668;2022-09-09T08:39:44;10;8;
74638;PMS5003;63146;-33.830;18.668;2022-09-09T08:42:22;11;10;
74638;PMS5003;63146;-33.830;18.668;2022-09-09T08:44:39;15;12;
74638;PMS5003;63146;-33.830;18.668;2022-09-09T08:47:02;10;9;
74638;PMS5003;63146;-33.830;18.668;2022-09-09T08:51:53;11;10;
74638;PMS5003;63146;-33.830;18.668;2022-09-09T08:54:17;10;9;
74638;PMS5003;63146;-33.830;18.668;2022-09-09T08:56:43;13;12;
74638;PMS5003;63146;-33.830;18.668;2022-09-09T08:59:08;14;14;
74638;PMS5003;63146;-33.830;18.668;2022-09-09T09:04:00;12;12;
74638;PMS5003;63146;-33.830;18.668;2022-09-09T09:06:28;18;15;
74638;PMS5003;63146;-33.830;18.668;2022-09-09T09:08:51;18;17;
74638;PMS5003;63146;-33.830;18.668;2022-09-09T09:11:15;24;24;
74638;PMS5003;63146;-33.830;18.668;2022-09-09T09:13:42;20;19;
74638;PMS5003;63146;-33.830;18.668;2022-09-09T09:16:11;28;25;
74638;PMS5003;63146;-33.830;18.668;2022-09-09T09:18:31;26;23;
74638;PMS5003;63146;-33.830;18.668;2022-09-09T09:20:58;24;24;
74638;PMS5003;63146;-33.830;18.668;2022-09-09T09:23:22;27;25;
74638;PMS5003;63146;-33.830;18.668;2022-09-09T09:25:47;26;26;
74638;PMS5003;63146;-33.830;18.668;2022-09-09T09:28:15;28;26;
74638;PMS5003;63146;-33.830;18.668;2022-09-09T09:30:38;22;19;
74638;PMS5003;63146;-33.830;18.668;2022-09-09T09:33:04;21;19;
74638;PMS5003;63146;-33.830;18.668;2022-09-09T09:35:28;22;20;
74638;PMS5003;63146;-33.830;18.668;2022-09-09T09:37:53;16;15;
74638;PMS5003;63146;-33.830;18.668;2022-09-09T09:40:19;17;15;
74638;PMS5003;63146;-33.830;18.668;2022-09-09T09:42:49;20;19;
74638;PMS5003;63146;-33.830;18.668;2022-09-09T09:47:35;11;10;
74638;PMS5003;63146;-33.830;18.668;2022-09-09T09:50:00;13;11;
74638;PMS5003;63146;-33.830;18.668;2022-09-09T09:52:26;9;8;
74638;PMS5003;63146;-33.830;18.668;2022-09-09T09:54:50;9;9;
74638;PMS5003;63146;-33.830;18.668;2022-09-09T09:57:16;7;7;
74638;PMS5003;63146;-33.830;18.668;2022-09-09T09:59:41;7;6;
74638;PMS5003;63146;-33.830;18.668;2022-09-09T10:04:32;7;7;
74638;PMS5003;63146;-33.830;18.668;2022-09-09T10:06:57;8;8;
74638;PMS5003;63146;-33.830;18.668;2022-09-09T10:09:23;5;4;
74638;PMS5003;63146;-33.830;18.668;2022-09-09T10:11:50;10;8;
74638;PMS5003;63146;-33.830;18.668;2022-09-09T10:14:15;9;9;
74638;PMS5003;63146;-33.830;18.668;2022-09-09T10:16:44;7;7;
74638;PMS5003;63146;-33.830;18.668;2022-09-09T10:19:05;8;7;
74638;PMS5003;63146;-33.830;18.668;2022-09-09T10:21:35;9;8;
74638;PMS5003;63146;-33.830;18.668;2022-09-09T10:24:00;8;8;
74638;PMS5003;63146;-33.830;18.668;2022-09-09T10:26:26;7;7;
74638;PMS5003;63146;-33.830;18.668;2022-09-09T10:28:51;6;6;
74638;PMS5003;63146;-33.830;18.668;2022-09-09T10:31:14;7;6;
74638;PMS5003;63146;-33.830;18.668;2022-09-09T10:33:39;11;9;
74638;PMS5003;63146;-33.830;18.668;2022-09-09T10:36:02;8;8;
74638;PMS5003;63146;-33.830;18.668;2022-09-09T10:38:28;11;9;
74638;PMS5003;63146;-33.830;18.668;2022-09-09T10:41:04;8;8;
74638;PMS5003;63146;-33.830;18.668;2022-09-09T10:43:22;9;9;
74638;PMS5003;63146;-33.830;18.668;2022-09-09T10:45:47;11;9;
74638;PMS5003;63146;-33.830;18.668;2022-09-09T10:48:12;10;9;
74638;PMS5003;63146;-33.830;18.668;2022-09-09T10:50:42;11;10;
74638;PMS5003;63146;-33.830;18.668;2022-09-09T10:53:00;6;6;
74638;PMS5003;63146;-33.830;18.668;2022-09-09T10:55:26;7;5;
74638;PMS5003;63146;-33.830;18.668;2022-09-09T10:57:50;9;7;
74638;PMS5003;63146;-33.830;18.668;2022-09-09T11:00:16;8;5;
74638;PMS5003;63146;-33.830;18.668;2022-09-09T11:02:40;8;8;
74638;PMS5003;63146;-33.830;18.668;2022-09-09T11:05:08;5;5;
74638;PMS5003;63146;-33.830;18.668;2022-09-09T11:07:34;8;7;
74638;PMS5003;63146;-33.830;18.668;2022-09-09T11:09:59;7;7;
74638;PMS5003;63146;-33.830;18.668;2022-09-09T11:12:22;7;6;
74638;PMS5003;63146;-33.830;18.668;2022-09-09T11:14:48;7;6;
74638;PMS5003;63146;-33.830;18.668;2022-09-09T11:17:14;7;7;
74638;PMS5003;63146;-33.830;18.668;2022-09-09T11:19:38;8;7;
74638;PMS5003;63146;-33.830;18.668;2022-09-09T11:22:04;7;7;
74638;PMS5003;63146;-33.830;18.668;2022-09-09T11:24:30;8;7;
74638;PMS5003;63146;-33.830;18.668;2022-09-09T11:26:55;6;5;
74638;PMS5003;63146;-33.830;18.668;2022-09-09T11:29:24;9;7;
74638;PMS5003;63146;-33.830;18.668;2022-09-09T11:31:46;6;5;
74638;PMS5003;63146;-33.830;18.668;2022-09-09T11:36:38;8;8;
74638;PMS5003;63146;-33.830;18.668;2022-09-09T11:39:01;5;5;
74638;PMS5003;63146;-33.830;18.668;2022-09-09T11:41:32;8;8;
74638;PMS5003;63146;-33.830;18.668;2022-09-09T11:43:51;4;4;
74638;PMS5003;63146;-33.830;18.668;2022-09-09T11:46:17;6;6;
74638;PMS5003;63146;-33.830;18.668;2022-09-09T11:48:43;7;7;
74638;PMS5003;63146;-33.830;18.668;2022-09-09T11:51:08;8;6;
74638;PMS5003;63146;-33.830;18.668;2022-09-09T11:53:34;8;7;
74638;PMS5003;63146;-33.830;18.668;2022-09-09T11:56:05;4;4;
74638;PMS5003;63146;-33.830;18.668;2022-09-09T11:58:23;5;5;
74638;PMS5003;63146;-33.830;18.668;2022-09-09T12:00:49;7;5;
74638;PMS5003;63146;-33.830;18.668;2022-09-09T12:05:40;7;5;
74638;PMS5003;63146;-33.830;18.668;2022-09-09T12:08:11;7;7;
74638;PMS5003;63146;-33.830;18.668;2022-09-09T12:10:31;6;6;
74638;PMS5003;63146;-33.830;18.668;2022-09-09T12:13:06;7;5;
74638;PMS5003;63146;-33.830;18.668;2022-09-09T12:15:24;7;6;
74638;PMS5003;63146;-33.830;18.668;2022-09-09T12:17:47;4;4;
74638;PMS5003;63146;-33.830;18.668;2022-09-09T12:20:13;6;5;
74638;PMS5003;63146;-33.830;18.668;2022-09-09T12:22:39;5;3;
74638;PMS5003;63146;-33.830;18.668;2022-09-09T12:25:06;7;6;
74638;PMS5003;63146;-33.830;18.668;2022-09-09T12:27:28;6;5;
74638;PMS5003;63146;-33.830;18.668;2022-09-09T12:29:54;8;6;
74638;PMS5003;63146;-33.830;18.668;2022-09-09T12:32:20;7;5;
74638;PMS5003;63146;-33.830;18.668;2022-09-09T12:34:46;5;5;
74638;PMS5003;63146;-33.830;18.668;2022-09-09T12:37:13;5;5;
74638;PMS5003;63146;-33.830;18.668;2022-09-09T12:39:35;6;6;
74638;PMS5003;63146;-33.830;18.668;2022-09-09T12:42:00;8;6;
74638;PMS5003;63146;-33.830;18.668;2022-09-09T12:44:25;7;6;
74638;PMS5003;63146;-33.830;18.668;2022-09-09T12:46:50;8;7;
74638;PMS5003;63146;-33.830;18.668;2022-09-09T12:49:24;6;5;
74638;PMS5003;63146;-33.830;18.668;2022-09-09T12:51:41;6;4;
74638;PMS5003;63146;-33.830;18.668;2022-09-09T12:56:32;4;3;
74638;PMS5003;63146;-33.830;18.668;2022-09-09T12:58:57;5;5;
74638;PMS5003;63146;-33.830;18.668;2022-09-09T13:01:23;4;2;
74638;PMS5003;63146;-33.830;18.668;2022-09-09T13:03:48;5;5;
74638;PMS5003;63146;-33.830;18.668;2022-09-09T13:06:16;3;3;
74638;PMS5003;63146;-33.830;18.668;2022-09-09T13:08:38;5;4;
74638;PMS5003;63146;-33.830;18.668;2022-09-09T13:11:04;4;3;
74638;PMS5003;63146;-33.830;18.668;2022-09-09T13:13:29;3;3;
74638;PMS5003;63146;-33.830;18.668;2022-09-09T13:15:55;3;3;
74638;PMS5003;63146;-33.830;18.668;2022-09-09T13:18:21;3;3;
74638;PMS5003;63146;-33.830;18.668;2022-09-09T13:20:46;4;3;
74638;PMS5003;63146;-33.830;18.668;2022-09-09T13:23:10;3;3;
74638;PMS5003;63146;-33.830;18.668;2022-09-09T13:25:36;3;3;
74638;PMS5003;63146;-33.830;18.668;2022-09-09T13:28:02;3;3;
74638;PMS5003;63146;-33.830;18.668;2022-09-09T13:30:28;4;4;
74638;PMS5003;63146;-33.830;18.668;2022-09-09T13:33:01;3;3;
74638;PMS5003;63146;-33.830;18.668;2022-09-09T13:35:22;3;3;
74638;PMS5003;63146;-33.830;18.668;2022-09-09T13:37:43;2;2;
74638;PMS5003;63146;-33.830;18.668;2022-09-09T13:40:17;2;2;
74638;PMS5003;63146;-33.830;18.668;2022-09-09T13:42:35;2;2;
74638;PMS5003;63146;-33.830;18.668;2022-09-09T13:44:59;3;3;
74638;PMS5003;63146;-33.830;18.668;2022-09-09T13:47:27;2;2;
74638;PMS5003;63146;-33.830;18.668;2022-09-09T13:49:50;3;3;
74638;PMS5003;63146;-33.830;18.668;2022-09-09T13:52:16;4;3;
74638;PMS5003;63146;-33.830;18.668;2022-09-09T13:54:42;4;3;
74638;PMS5003;63146;-33.830;18.668;2022-09-09T13:59:31;6;3;
74638;PMS5003;63146;-33.830;18.668;2022-09-09T14:01:56;2;2;
74638;PMS5003;63146;-33.830;18.668;2022-09-09T14:04:22;4;3;
74638;PMS5003;63146;-33.830;18.668;2022-09-09T14:06:47;3;3;
74638;PMS5003;63146;-33.830;18.668;2022-09-09T14:09:14;6;3;
74638;PMS5003;63146;-33.830;18.668;2022-09-09T14:11:38;2;2;
74638;PMS5003;63146;-33.830;18.668;2022-09-09T14:14:03;6;5;
74638;PMS5003;63146;-33.830;18.668;2022-09-09T14:16:29;4;4;
74638;PMS5003;63146;-33.830;18.668;2022-09-09T14:18:54;3;3;
74638;PMS5003;63146;-33.830;18.668;2022-09-09T14:21:19;5;5;
74638;PMS5003;63146;-33.830;18.668;2022-09-09T14:23:45;4;4;
74638;PMS5003;63146;-33.830;18.668;2022-09-09T14:26:10;5;4;
74638;PMS5003;63146;-33.830;18.668;2022-09-09T14:28:40;4;4;
74638;PMS5003;63146;-33.830;18.668;2022-09-09T14:31:01;5;4;
74638;PMS5003;63146;-33.830;18.668;2022-09-09T14:33:27;3;2;
74638;PMS5003;63146;-33.830;18.668;2022-09-09T14:35:55;4;4;
74638;PMS5003;63146;-33.830;18.668;2022-09-09T14:38:17;5;4;
74638;PMS5003;63146;-33.830;18.668;2022-09-09T14:40:44;5;4;
74638;PMS5003;63146;-33.830;18.668;2022-09-09T14:43:10;5;5;
74638;PMS5003;63146;-33.830;18.668;2022-09-09T14:45:35;5;5;
74638;PMS5003;63146;-33.830;18.668;2022-09-09T14:47:59;2;2;
74638;PMS5003;63146;-33.830;18.668;2022-09-09T14:50:24;3;3;
74638;PMS5003;63146;-33.830;18.668;2022-09-09T14:52:50;4;4;
74638;PMS5003;63146;-33.830;18.668;2022-09-09T14:55:16;3;3;
74638;PMS5003;63146;-33.830;18.668;2022-09-09T14:57:41;3;3;
74638;PMS5003;63146;-33.830;18.668;2022-09-09T15:00:06;4;2;
74638;PMS5003;63146;-33.830;18.668;2022-09-09T15:02:31;3;3;
74638;PMS5003;63146;-33.830;18.668;2022-09-09T15:04:56;5;5;
74638;PMS5003;63146;-33.830;18.668;2022-09-09T15:07:22;2;2;
74638;PMS5003;63146;-33.830;18.668;2022-09-09T15:09:47;3;3;
74638;PMS5003;63146;-33.830;18.668;2022-09-09T15:12:13;3;3;
74638;PMS5003;63146;-33.830;18.668;2022-09-09T15:14:38;3;3;
74638;PMS5003;63146;-33.830;18.668;2022-09-09T15:17:04;3;2;
74638;PMS5003;63146;-33.830;18.668;2022-09-09T15:19:29;5;5;
74638;PMS5003;63146;-33.830;18.668;2022-09-09T15:21:54;2;2;
74638;PMS5003;63146;-33.830;18.668;2022-09-09T15:24:20;5;5;
74638;PMS5003;63146;-33.830;18.668;2022-09-09T15:26:46;5;5;
74638;PMS5003;63146;-33.830;18.668;2022-09-09T15:29:11;4;4;
74638;PMS5003;63146;-33.830;18.668;2022-09-09T15:31:36;5;5;
74638;PMS5003;63146;-33.830;18.668;2022-09-09T15:34:02;5;4;
74638;PMS5003;63146;-33.830;18.668;2022-09-09T15:36:28;4;4;
74638;PMS5003;63146;-33.830;18.668;2022-09-09T15:38:53;5;5;
74638;PMS5003;63146;-33.830;18.668;2022-09-09T15:41:19;9;9;
74638;PMS5003;63146;-33.830;18.668;2022-09-09T15:43:44;6;6;
74638;PMS5003;63146;-33.830;18.668;2022-09-09T15:48:34;5;5;
74638;PMS5003;63146;-33.830;18.668;2022-09-09T15:51:03;5;5;
74638;PMS5003;63146;-33.830;18.668;2022-09-09T15:53:25;7;6;
74638;PMS5003;63146;-33.830;18.668;2022-09-09T15:55:51;8;6;
74638;PMS5003;63146;-33.830;18.668;2022-09-09T15:58:15;13;13;
74638;PMS5003;63146;-33.830;18.668;2022-09-09T16:00:41;21;20;
74638;PMS5003;63146;-33.830;18.668;2022-09-09T16:03:07;20;20;
74638;PMS5003;63146;-33.830;18.668;2022-09-09T16:05:33;10;10;
74638;PMS5003;63146;-33.830;18.668;2022-09-09T16:07:58;12;12;
74638;PMS5003;63146;-33.830;18.668;2022-09-09T16:10:23;12;12;
74638;PMS5003;63146;-33.830;18.668;2022-09-09T16:12:49;11;10;